<?xml version="1.0" encoding="UTF-8" standalone="no" ?>
<gpx xmlns="http://www.topografix.com/GPX/1/1" creator="" version="1.1" xmlns:xsi="http://www.w3.org/2001/XMLSchema-instance" xsi:schemaLocation="http://www.topografix.com/GPX/1/1 http://www.topografix.com/GPX/1/1/gpx.xsd">
 <trk>
  <name>ACTIVE LOG085407</name>
  <trkseg>
   <trkpt lat="-3.910772" lon="-77.231910">
    <ele>171.250</ele>
    <time>2014-08-09T13:54:06Z</time>
   </trkpt>
   <trkpt lat="-3.911057" lon="-77.231632">
    <ele>187.116</ele>
    <time>2014-08-09T13:55:32Z</time>
   </trkpt>
   <trkpt lat="-3.911158" lon="-77.231468">
    <ele>184.598</ele>
    <time>2014-08-09T13:56:53Z</time>
   </trkpt>
   <trkpt lat="-3.911259" lon="-77.231115">
    <ele>185.542</ele>
    <time>2014-08-09T13:58:44Z</time>
   </trkpt>
   <trkpt lat="-3.911384" lon="-77.231016">
    <ele>184.550</ele>
    <time>2014-08-09T14:00:04Z</time>
   </trkpt>
   <trkpt lat="-3.911664" lon="-77.230856">
    <ele>184.640</ele>
    <time>2014-08-09T14:01:43Z</time>
   </trkpt>
   <trkpt lat="-3.911775" lon="-77.230567">
    <ele>182.914</ele>
    <time>2014-08-09T14:03:56Z</time>
   </trkpt>
   <trkpt lat="-3.911679" lon="-77.230486">
    <ele>181.357</ele>
    <time>2014-08-09T14:06:24Z</time>
   </trkpt>
   <trkpt lat="-3.911779" lon="-77.230458">
    <ele>181.232</ele>
    <time>2014-08-09T14:07:20Z</time>
   </trkpt>
   <trkpt lat="-3.911743" lon="-77.230486">
    <ele>181.401</ele>
    <time>2014-08-09T14:08:09Z</time>
   </trkpt>
   <trkpt lat="-3.911763" lon="-77.230528">
    <ele>181.270</ele>
    <time>2014-08-09T14:08:29Z</time>
   </trkpt>
   <trkpt lat="-3.911755" lon="-77.230627">
    <ele>179.903</ele>
    <time>2014-08-09T14:10:00Z</time>
   </trkpt>
   <trkpt lat="-3.911771" lon="-77.230572">
    <ele>179.831</ele>
    <time>2014-08-09T14:10:19Z</time>
   </trkpt>
   <trkpt lat="-3.911741" lon="-77.230512">
    <ele>180.064</ele>
    <time>2014-08-09T14:10:40Z</time>
   </trkpt>
   <trkpt lat="-3.911621" lon="-77.230280">
    <ele>179.673</ele>
    <time>2014-08-09T14:11:11Z</time>
   </trkpt>
   <trkpt lat="-3.911684" lon="-77.230462">
    <ele>179.840</ele>
    <time>2014-08-09T14:11:43Z</time>
   </trkpt>
   <trkpt lat="-3.911633" lon="-77.230164">
    <ele>178.883</ele>
    <time>2014-08-09T14:11:52Z</time>
   </trkpt>
   <trkpt lat="-3.911619" lon="-77.230160">
    <ele>178.699</ele>
    <time>2014-08-09T14:12:22Z</time>
   </trkpt>
   <trkpt lat="-3.911751" lon="-77.230499">
    <ele>177.781</ele>
    <time>2014-08-09T14:12:53Z</time>
   </trkpt>
  </trkseg>
 </trk>
 <trk>
  <name>ACTIVE LOG125540</name>
  <trkseg>
   <trkpt lat="-3.912128" lon="-77.230455">
    <ele>179.058</ele>
    <time>2014-08-09T17:55:39Z</time>
   </trkpt>
   <trkpt lat="-3.912309" lon="-77.230516">
    <ele>178.349</ele>
    <time>2014-08-09T17:56:27Z</time>
   </trkpt>
   <trkpt lat="-3.912544" lon="-77.230479">
    <ele>177.252</ele>
    <time>2014-08-09T17:57:26Z</time>
   </trkpt>
   <trkpt lat="-3.912697" lon="-77.230506">
    <ele>177.902</ele>
    <time>2014-08-09T17:59:21Z</time>
   </trkpt>
   <trkpt lat="-3.912709" lon="-77.230512">
    <ele>177.907</ele>
    <time>2014-08-09T18:00:20Z</time>
   </trkpt>
   <trkpt lat="-3.912769" lon="-77.230551">
    <ele>177.775</ele>
    <time>2014-08-09T18:00:34Z</time>
   </trkpt>
  </trkseg>
 </trk>
</gpx>
